Hlavní strana
METAR-TAF:

METAR-TAF

Letiště :

Florencie, Itálie

zeměpisná šířka: 43-48N, zeměpisná délka: 011-12E, výška: 40 m

Aktuální stav počasí

Zpráva byla vytvořena před 20 hodinami a 39 minutami, v 14:50 UTC
Severní vítr 13 kt, proměnlivý mezi severoseverozápadním a severovýchodním
Teplota 7°C
Vlhkost vzduchu 53%
Tlak 1006 hPa
Viditelnost 10 km a více
Skoro jasno ve výšce 7000 ft

METAR: LIRQ 201450Z 01013KT 340V040 9999 FEW070 07/M02 Q1006

Čas: 12:29 (11:29 UTC)

Předpověď počasí

Zpráva byla vytvořena před 29 minutami, v 11:00 UTC
Předpověď platná od 20 v 12 UTC do 21 v 12 UTC
vítr z různých směrů 5 kt
Viditelnost 10 km a více
Polojasno ve výšce 4000 ft
Změna
od 21 v 02 UTC do 21 v 04 UTC
Severovýchodní vítr 12 kt

TAF: LIRQ 201100Z 2012/2112 VRB05KT 9999 SCT040 BECMG 2102/2104 04012KT

Stav a předpovědi počasí z více než 4 000 letišť (zprávy METAR a TAF).

Červené a žluté tečky na mapě představují dostupné meteorologické stanice.

Když kurzor umístíte na tečku, zobrazí se název stanice.

Pak kliknutím zobrazíte stav a předpověď počasí.

Chcete-li změnit mapu, kliknutím na zelené tlačítko se znaménkem +mapu přiblížíte, kliknutím na zelené tlačítko se znaménkem – mapu oddálíte a kliknutím na zelené šipky přejdete na sousední mapy.


METAR-TAF: